LEMG/AGP METAR and TAF weather

Enter ICAO airport designator
Station Type Date Time Source
LEMG METAR 2021/04/13 06:30 UTC NOAA

LEMG 130630Z 13007KT 9999 FEW015 OVC030 16/13 Q1022 NOSIG


Station Type Date Time Source
LEMG Decoded METAR 2021/04/13 06:30 UTC NOAA

Malaga / Aeropuerto, Spain (LEMG) 36-40N 004-29W 7M
Apr 13, 2021 - 02:30 AM EDT / 2021.04.13 0630 UTC
Wind: from the SE (130 degrees) at 8 MPH (7 KT):0
Visibility: greater than 7 mile(s):0
Sky conditions: overcast
Temperature: 60 F (16 C)
Dew Point: 55 F (13 C)
Relative Humidity: 82%
Pressure (altimeter): 30.18 in. Hg (1022 hPa)
ob: LEMG 130630Z 13007KT 9999 FEW015 OVC030 16/13 Q1022 NOSIG
cycle: 6

Station Type Date Time Source
LEMG TAF 2021/04/13 06:27 UTC NOAA

TAF LEMG 130500Z 1306/1406 29006KT 9999 SCT020 TX20/1313Z TN13/1306Z
BECMG 1308/1310 13008KT
BECMG 1319/1321 29005KT

Example: see airport list